KLFK

Angelina County Airport

Lufkin, Texas, USA
KLFK 242340Z 2500/2524 00000KT P6SM SKC FM250900 VRB03KT 4SM BR BKN020 TEMPO 2510/2514 1/2SM FG OVC001 FM251400 16006KT P6SM OVC015 FM251600 19007KT P6SM BKN035
Issued Valid From Valid To
Sep-24 @ 23:40 UTC
(2 hours ago)
Sep-25 @ 00:00 UTC
(an hour ago)
Sep-26 @ 00:00 UTC
(in 23 hours)
Sep-25 @ 00:00 to Sep-25 @ 09:00
KLFK 242340Z 2500/2524 00000KT P6SM SKC
Visibility Clouds
Greater than 6 miles
  • Clear skies
From Sep-25 @ 09:00 to Sep-25 @ 14:00
FM250900 VRB03KT 4SM BR BKN020
Wind Visibility Clouds Conditions
Variable at 3 knots 4 miles
  • Broken at 2,000' AGL
  • Mist
Temporary Sep-25 @ 10:00 to Sep-25 @ 14:00
TEMPO 2510/2514 1/2SM FG OVC001
Visibility Clouds Conditions
1/2 miles
  • Overcast at 100' AGL
  • Fog
From Sep-25 @ 14:00 to Sep-25 @ 16:00
FM251400 16006KT P6SM OVC015
Wind Visibility Clouds
160° at 6 knots Greater than 6 miles
  • Overcast at 1,500' AGL
From Sep-25 @ 16:00 to Sep-26 @ 00:00
FM251600 19007KT P6SM BKN035
Wind Visibility Clouds
190° at 7 knots Greater than 6 miles
  • Broken at 3,500' AGL
KLFK 242340Z 2500/2524 00000KT P6SM SKC FM250900 VRB03KT 4SM BR BKN020 TEMPO 2510/2514 1/2SM FG OVC001 FM251400 16006KT P6SM OVC015 FM251600 19007KT P6SM BKN035
Issued Sep-24 @ 23:40 UTC
(2 hours ago)
Valid From Sep-25 @ 00:00 UTC
(an hour ago)
Valid To Sep-26 @ 00:00 UTC
(in 23 hours)
Sep-25 @ 00:00 - Sep-25 @ 09:00
Clouds
  • Clear skies
From Sep-25 @ 09:00 - Sep-25 @ 14:00
Wind Visibility
Variable at 3 knots 4 miles
Clouds
  • Broken at 2,000' AGL
Conditions
  • Mist
Temporary Sep-25 @ 10:00 - Sep-25 @ 14:00
Clouds
  • Overcast at 100' AGL
Conditions
  • Fog
From Sep-25 @ 14:00 - Sep-25 @ 16:00
Wind Visibility
160° at 6 knots Greater than 6 miles
Clouds
  • Overcast at 1,500' AGL
From Sep-25 @ 16:00 - Sep-26 @ 00:00
Wind Visibility
190° at 7 knots Greater than 6 miles
Clouds
  • Broken at 3,500' AGL